sensor_id;sensor_type;location;lat;lon;timestamp;temperature;humidity
10968;DHT22;5536;49.602;10.980;2022-09-09T00:01:34;14.10;99.90
10968;DHT22;5536;49.602;10.980;2022-09-09T00:04:12;14.00;99.90
10968;DHT22;5536;49.602;10.980;2022-09-09T00:06:44;13.90;99.90
10968;DHT22;5536;49.602;10.980;2022-09-09T00:09:15;14.00;99.90
10968;DHT22;5536;49.602;10.980;2022-09-09T00:11:45;14.10;99.90
10968;DHT22;5536;49.602;10.980;2022-09-09T00:14:19;14.20;99.90
10968;DHT22;5536;49.602;10.980;2022-09-09T00:16:51;14.20;99.90
10968;DHT22;5536;49.602;10.980;2022-09-09T00:19:24;14.20;99.90
10968;DHT22;5536;49.602;10.980;2022-09-09T00:22:02;14.20;99.90
10968;DHT22;5536;49.602;10.980;2022-09-09T00:24:38;14.20;99.90
10968;DHT22;5536;49.602;10.980;2022-09-09T00:27:11;14.10;99.90
10968;DHT22;5536;49.602;10.980;2022-09-09T00:29:44;14.00;99.90
10968;DHT22;5536;49.602;10.980;2022-09-09T00:32:13;13.90;99.90
10968;DHT22;5536;49.602;10.980;2022-09-09T00:34:47;13.80;99.90
10968;DHT22;5536;49.602;10.980;2022-09-09T00:37:15;13.80;99.90
10968;DHT22;5536;49.602;10.980;2022-09-09T00:39:45;13.80;99.90
10968;DHT22;5536;49.602;10.980;2022-09-09T00:42:15;13.80;99.90
10968;DHT22;5536;49.602;10.980;2022-09-09T00:44:56;13.80;99.90
10968;DHT22;5536;49.602;10.980;2022-09-09T00:47:40;13.90;99.90
10968;DHT22;5536;49.602;10.980;2022-09-09T00:50:22;13.80;99.90
10968;DHT22;5536;49.602;10.980;2022-09-09T00:53:02;13.70;99.90
10968;DHT22;5536;49.602;10.980;2022-09-09T00:55:39;13.70;99.90
10968;DHT22;5536;49.602;10.980;2022-09-09T00:58:09;13.70;99.90
10968;DHT22;5536;49.602;10.980;2022-09-09T01:00:41;13.60;99.90
10968;DHT22;5536;49.602;10.980;2022-09-09T01:03:25;13.70;99.90
10968;DHT22;5536;49.602;10.980;2022-09-09T01:06:12;13.60;99.90
10968;DHT22;5536;49.602;10.980;2022-09-09T01:09:08;13.70;99.90
10968;DHT22;5536;49.602;10.980;2022-09-09T01:11:47;13.70;99.90
10968;DHT22;5536;49.602;10.980;2022-09-09T01:14:25;13.60;99.90
10968;DHT22;5536;49.602;10.980;2022-09-09T01:16:59;13.70;99.90
10968;DHT22;5536;49.602;10.980;2022-09-09T01:19:37;13.70;99.90
10968;DHT22;5536;49.602;10.980;2022-09-09T01:22:15;13.60;99.90
10968;DHT22;5536;49.602;10.980;2022-09-09T01:25:02;13.60;99.90
10968;DHT22;5536;49.602;10.980;2022-09-09T01:27:34;13.60;99.90
10968;DHT22;5536;49.602;10.980;2022-09-09T01:30:07;13.60;99.90
10968;DHT22;5536;49.602;10.980;2022-09-09T01:32:41;13.50;99.90
10968;DHT22;5536;49.602;10.980;2022-09-09T01:35:12;13.50;99.90
10968;DHT22;5536;49.602;10.980;2022-09-09T01:37:41;13.50;99.90
10968;DHT22;5536;49.602;10.980;2022-09-09T01:40:08;13.40;99.90
10968;DHT22;5536;49.602;10.980;2022-09-09T01:42:37;13.60;99.90
10968;DHT22;5536;49.602;10.980;2022-09-09T01:45:04;13.60;99.90
10968;DHT22;5536;49.602;10.980;2022-09-09T01:47:32;13.50;99.90
10968;DHT22;5536;49.602;10.980;2022-09-09T01:49:59;13.60;99.90
10968;DHT22;5536;49.602;10.980;2022-09-09T01:52:27;13.50;99.90
10968;DHT22;5536;49.602;10.980;2022-09-09T01:54:54;13.60;99.90
10968;DHT22;5536;49.602;10.980;2022-09-09T01:57:25;13.60;99.90
10968;DHT22;5536;49.602;10.980;2022-09-09T02:00:02;13.70;99.90
10968;DHT22;5536;49.602;10.980;2022-09-09T02:02:35;13.70;99.90
10968;DHT22;5536;49.602;10.980;2022-09-09T02:05:12;13.70;99.90
10968;DHT22;5536;49.602;10.980;2022-09-09T02:07:45;13.70;99.90
10968;DHT22;5536;49.602;10.980;2022-09-09T02:10:21;13.80;99.90
10968;DHT22;5536;49.602;10.980;2022-09-09T02:12:53;13.70;99.90
10968;DHT22;5536;49.602;10.980;2022-09-09T02:15:26;13.70;99.90
10968;DHT22;5536;49.602;10.980;2022-09-09T02:17:56;13.70;99.90
10968;DHT22;5536;49.602;10.980;2022-09-09T02:20:24;13.70;99.90
10968;DHT22;5536;49.602;10.980;2022-09-09T02:22:54;13.70;99.90
10968;DHT22;5536;49.602;10.980;2022-09-09T02:25:25;13.70;99.90
10968;DHT22;5536;49.602;10.980;2022-09-09T02:27:53;13.70;99.90
10968;DHT22;5536;49.602;10.980;2022-09-09T02:30:21;13.60;99.90
10968;DHT22;5536;49.602;10.980;2022-09-09T02:32:51;13.60;99.90
10968;DHT22;5536;49.602;10.980;2022-09-09T02:35:24;13.60;99.90
10968;DHT22;5536;49.602;10.980;2022-09-09T02:37:54;13.60;99.90
10968;DHT22;5536;49.602;10.980;2022-09-09T02:40:23;13.60;99.90
10968;DHT22;5536;49.602;10.980;2022-09-09T02:42:50;13.60;99.90
10968;DHT22;5536;49.602;10.980;2022-09-09T02:45:18;13.60;99.90
10968;DHT22;5536;49.602;10.980;2022-09-09T02:47:51;13.70;99.90
10968;DHT22;5536;49.602;10.980;2022-09-09T02:50:25;13.80;99.90
10968;DHT22;5536;49.602;10.980;2022-09-09T02:53:05;13.80;99.90
10968;DHT22;5536;49.602;10.980;2022-09-09T02:55:38;13.80;99.90
10968;DHT22;5536;49.602;10.980;2022-09-09T02:58:10;13.90;99.90
10968;DHT22;5536;49.602;10.980;2022-09-09T03:00:39;13.80;99.90
10968;DHT22;5536;49.602;10.980;2022-09-09T03:03:08;13.80;99.90
10968;DHT22;5536;49.602;10.980;2022-09-09T03:05:35;13.90;99.90
10968;DHT22;5536;49.602;10.980;2022-09-09T03:08:03;14.00;99.90
10968;DHT22;5536;49.602;10.980;2022-09-09T03:10:31;14.00;99.90
10968;DHT22;5536;49.602;10.980;2022-09-09T03:12:58;14.00;99.90
10968;DHT22;5536;49.602;10.980;2022-09-09T03:15:25;14.00;99.90
10968;DHT22;5536;49.602;10.980;2022-09-09T03:17:54;13.90;99.90
10968;DHT22;5536;49.602;10.980;2022-09-09T03:20:23;13.90;99.90
10968;DHT22;5536;49.602;10.980;2022-09-09T03:22:51;13.90;99.90
10968;DHT22;5536;49.602;10.980;2022-09-09T03:25:18;14.00;99.90
10968;DHT22;5536;49.602;10.980;2022-09-09T03:27:45;13.90;99.90
10968;DHT22;5536;49.602;10.980;2022-09-09T03:30:12;14.00;99.90
10968;DHT22;5536;49.602;10.980;2022-09-09T03:32:39;14.00;99.90
10968;DHT22;5536;49.602;10.980;2022-09-09T03:35:07;14.00;99.90
10968;DHT22;5536;49.602;10.980;2022-09-09T03:37:35;14.00;99.90
10968;DHT22;5536;49.602;10.980;2022-09-09T03:40:05;14.00;99.90
10968;DHT22;5536;49.602;10.980;2022-09-09T03:42:33;14.10;99.90
10968;DHT22;5536;49.602;10.980;2022-09-09T03:45:03;14.10;99.90
10968;DHT22;5536;49.602;10.980;2022-09-09T03:47:30;14.00;99.90
10968;DHT22;5536;49.602;10.980;2022-09-09T03:49:57;14.00;99.90
10968;DHT22;5536;49.602;10.980;2022-09-09T03:52:24;13.90;99.90
10968;DHT22;5536;49.602;10.980;2022-09-09T03:54:53;13.90;99.90
10968;DHT22;5536;49.602;10.980;2022-09-09T03:57:22;13.90;99.90
10968;DHT22;5536;49.602;10.980;2022-09-09T03:59:49;13.90;99.90
10968;DHT22;5536;49.602;10.980;2022-09-09T04:02:15;13.90;99.90
10968;DHT22;5536;49.602;10.980;2022-09-09T04:04:42;14.00;99.90
10968;DHT22;5536;49.602;10.980;2022-09-09T04:07:09;14.00;99.90
10968;DHT22;5536;49.602;10.980;2022-09-09T04:09:37;14.10;99.90
10968;DHT22;5536;49.602;10.980;2022-09-09T04:12:06;14.00;99.90
10968;DHT22;5536;49.602;10.980;2022-09-09T04:14:33;14.10;99.90
10968;DHT22;5536;49.602;10.980;2022-09-09T04:17:00;14.10;99.90
10968;DHT22;5536;49.602;10.980;2022-09-09T04:19:29;14.00;99.90
10968;DHT22;5536;49.602;10.980;2022-09-09T04:21:56;13.90;99.90
10968;DHT22;5536;49.602;10.980;2022-09-09T04:24:23;13.90;99.90
10968;DHT22;5536;49.602;10.980;2022-09-09T04:26:53;13.90;99.90
10968;DHT22;5536;49.602;10.980;2022-09-09T04:29:21;14.00;99.90
10968;DHT22;5536;49.602;10.980;2022-09-09T04:31:48;14.00;99.90
10968;DHT22;5536;49.602;10.980;2022-09-09T04:34:14;14.10;99.90
10968;DHT22;5536;49.602;10.980;2022-09-09T04:36:41;14.20;99.90
10968;DHT22;5536;49.602;10.980;2022-09-09T04:39:08;14.10;99.90
10968;DHT22;5536;49.602;10.980;2022-09-09T04:41:35;14.20;99.90
10968;DHT22;5536;49.602;10.980;2022-09-09T04:44:03;14.20;99.90
10968;DHT22;5536;49.602;10.980;2022-09-09T04:46:31;14.20;99.90
10968;DHT22;5536;49.602;10.980;2022-09-09T04:48:59;14.10;99.90
10968;DHT22;5536;49.602;10.980;2022-09-09T04:51:26;14.00;99.90
10968;DHT22;5536;49.602;10.980;2022-09-09T04:53:53;14.00;99.90
10968;DHT22;5536;49.602;10.980;2022-09-09T04:56:20;14.10;99.90
10968;DHT22;5536;49.602;10.980;2022-09-09T04:58:47;14.10;99.90
10968;DHT22;5536;49.602;10.980;2022-09-09T05:01:16;14.20;99.90
10968;DHT22;5536;49.602;10.980;2022-09-09T05:03:45;14.00;99.90
10968;DHT22;5536;49.602;10.980;2022-09-09T05:06:14;14.00;99.90
10968;DHT22;5536;49.602;10.980;2022-09-09T05:08:42;14.00;99.90
10968;DHT22;5536;49.602;10.980;2022-09-09T05:11:14;14.10;99.90
10968;DHT22;5536;49.602;10.980;2022-09-09T05:13:42;14.00;99.90
10968;DHT22;5536;49.602;10.980;2022-09-09T05:16:09;14.10;99.90
10968;DHT22;5536;49.602;10.980;2022-09-09T05:18:37;14.10;99.90
10968;DHT22;5536;49.602;10.980;2022-09-09T05:21:06;14.20;99.90
10968;DHT22;5536;49.602;10.980;2022-09-09T05:23:33;14.30;99.90
10968;DHT22;5536;49.602;10.980;2022-09-09T05:26:01;14.20;99.90
10968;DHT22;5536;49.602;10.980;2022-09-09T05:28:29;14.20;99.90
10968;DHT22;5536;49.602;10.980;2022-09-09T05:30:59;14.20;99.90
10968;DHT22;5536;49.602;10.980;2022-09-09T05:33:29;14.20;99.90
10968;DHT22;5536;49.602;10.980;2022-09-09T05:35:57;14.30;99.90
10968;DHT22;5536;49.602;10.980;2022-09-09T05:38:26;14.30;99.90
10968;DHT22;5536;49.602;10.980;2022-09-09T05:40:53;14.30;99.90
10968;DHT22;5536;49.602;10.980;2022-09-09T05:43:22;14.30;99.90
10968;DHT22;5536;49.602;10.980;2022-09-09T05:45:59;14.40;99.90
10968;DHT22;5536;49.602;10.980;2022-09-09T05:48:28;14.50;99.90
10968;DHT22;5536;49.602;10.980;2022-09-09T05:50:55;14.60;99.90
10968;DHT22;5536;49.602;10.980;2022-09-09T05:53:22;14.50;99.90
10968;DHT22;5536;49.602;10.980;2022-09-09T05:55:50;14.60;99.90
10968;DHT22;5536;49.602;10.980;2022-09-09T05:58:18;14.70;99.90
10968;DHT22;5536;49.602;10.980;2022-09-09T06:00:44;14.70;99.90
10968;DHT22;5536;49.602;10.980;2022-09-09T06:03:11;14.80;99.90
10968;DHT22;5536;49.602;10.980;2022-09-09T06:05:38;14.90;99.90
10968;DHT22;5536;49.602;10.980;2022-09-09T06:08:05;15.00;99.90
10968;DHT22;5536;49.602;10.980;2022-09-09T06:10:32;15.00;99.90
10968;DHT22;5536;49.602;10.980;2022-09-09T06:13:01;15.00;99.90
10968;DHT22;5536;49.602;10.980;2022-09-09T06:15:28;15.00;99.90
10968;DHT22;5536;49.602;10.980;2022-09-09T06:17:56;15.00;99.90
10968;DHT22;5536;49.602;10.980;2022-09-09T06:20:23;15.00;99.90
10968;DHT22;5536;49.602;10.980;2022-09-09T06:22:50;15.00;99.90
10968;DHT22;5536;49.602;10.980;2022-09-09T06:25:17;15.10;99.90
10968;DHT22;5536;49.602;10.980;2022-09-09T06:27:48;15.20;99.90
10968;DHT22;5536;49.602;10.980;2022-09-09T06:30:17;15.20;99.90
10968;DHT22;5536;49.602;10.980;2022-09-09T06:32:45;15.30;99.90
10968;DHT22;5536;49.602;10.980;2022-09-09T06:35:12;15.40;99.90
10968;DHT22;5536;49.602;10.980;2022-09-09T06:37:39;15.50;99.90
10968;DHT22;5536;49.602;10.980;2022-09-09T06:40:07;15.60;99.90
10968;DHT22;5536;49.602;10.980;2022-09-09T06:42:34;15.60;99.90
10968;DHT22;5536;49.602;10.980;2022-09-09T06:45:01;15.70;99.90
10968;DHT22;5536;49.602;10.980;2022-09-09T06:47:29;15.80;99.90
10968;DHT22;5536;49.602;10.980;2022-09-09T06:49:56;15.80;99.90
10968;DHT22;5536;49.602;10.980;2022-09-09T06:52:23;15.80;99.90
10968;DHT22;5536;49.602;10.980;2022-09-09T06:54:51;16.00;99.90
10968;DHT22;5536;49.602;10.980;2022-09-09T06:57:18;16.10;99.90
10968;DHT22;5536;49.602;10.980;2022-09-09T06:59:45;16.10;99.90
10968;DHT22;5536;49.602;10.980;2022-09-09T07:02:12;16.20;99.90
10968;DHT22;5536;49.602;10.980;2022-09-09T07:04:41;16.20;99.90
10968;DHT22;5536;49.602;10.980;2022-09-09T07:07:08;16.10;99.90
10968;DHT22;5536;49.602;10.980;2022-09-09T07:09:37;16.10;99.90
10968;DHT22;5536;49.602;10.980;2022-09-09T07:12:05;16.10;99.90
10968;DHT22;5536;49.602;10.980;2022-09-09T07:14:32;16.10;99.90
10968;DHT22;5536;49.602;10.980;2022-09-09T07:17:01;16.10;99.90
10968;DHT22;5536;49.602;10.980;2022-09-09T07:19:28;16.30;99.90
10968;DHT22;5536;49.602;10.980;2022-09-09T07:21:56;16.40;99.90
10968;DHT22;5536;49.602;10.980;2022-09-09T07:24:24;16.50;99.90
10968;DHT22;5536;49.602;10.980;2022-09-09T07:26:51;16.40;99.90
10968;DHT22;5536;49.602;10.980;2022-09-09T07:29:18;16.50;99.90
10968;DHT22;5536;49.602;10.980;2022-09-09T07:31:45;16.60;99.90
10968;DHT22;5536;49.602;10.980;2022-09-09T07:34:11;16.60;99.90
10968;DHT22;5536;49.602;10.980;2022-09-09T07:36:39;16.70;99.90
10968;DHT22;5536;49.602;10.980;2022-09-09T07:39:10;16.70;99.90
10968;DHT22;5536;49.602;10.980;2022-09-09T07:41:40;16.90;99.90
10968;DHT22;5536;49.602;10.980;2022-09-09T07:44:09;16.90;99.90
10968;DHT22;5536;49.602;10.980;2022-09-09T07:46:38;17.10;99.90
10968;DHT22;5536;49.602;10.980;2022-09-09T07:49:05;17.30;99.90
10968;DHT22;5536;49.602;10.980;2022-09-09T07:51:35;17.30;99.90
10968;DHT22;5536;49.602;10.980;2022-09-09T07:54:04;17.60;99.90
10968;DHT22;5536;49.602;10.980;2022-09-09T07:56:33;17.70;99.90
10968;DHT22;5536;49.602;10.980;2022-09-09T07:59:01;17.70;99.90
10968;DHT22;5536;49.602;10.980;2022-09-09T08:01:31;17.60;99.90
10968;DHT22;5536;49.602;10.980;2022-09-09T08:03:59;17.60;99.90
10968;DHT22;5536;49.602;10.980;2022-09-09T08:06:29;17.60;99.90
10968;DHT22;5536;49.602;10.980;2022-09-09T08:08:56;17.50;99.90
10968;DHT22;5536;49.602;10.980;2022-09-09T08:11:25;17.50;99.90
10968;DHT22;5536;49.602;10.980;2022-09-09T08:13:54;17.60;99.90
10968;DHT22;5536;49.602;10.980;2022-09-09T08:16:23;17.70;99.90
10968;DHT22;5536;49.602;10.980;2022-09-09T08:18:51;17.80;99.90
10968;DHT22;5536;49.602;10.980;2022-09-09T08:21:21;17.70;99.90
10968;DHT22;5536;49.602;10.980;2022-09-09T08:23:51;17.60;99.90
10968;DHT22;5536;49.602;10.980;2022-09-09T08:26:20;17.70;99.90
10968;DHT22;5536;49.602;10.980;2022-09-09T08:28:50;17.70;99.90
10968;DHT22;5536;49.602;10.980;2022-09-09T08:31:20;17.80;99.90
10968;DHT22;5536;49.602;10.980;2022-09-09T08:33:47;18.00;99.90
10968;DHT22;5536;49.602;10.980;2022-09-09T08:36:16;18.00;99.90
10968;DHT22;5536;49.602;10.980;2022-09-09T08:38:43;18.10;99.90
10968;DHT22;5536;49.602;10.980;2022-09-09T08:41:48;18.10;99.90
10968;DHT22;5536;49.602;10.980;2022-09-09T08:44:26;18.30;99.90
10968;DHT22;5536;49.602;10.980;2022-09-09T08:47:01;18.40;99.90
10968;DHT22;5536;49.602;10.980;2022-09-09T08:49:48;18.50;99.90
10968;DHT22;5536;49.602;10.980;2022-09-09T08:52:19;18.70;99.90
10968;DHT22;5536;49.602;10.980;2022-09-09T08:54:48;18.70;99.90
10968;DHT22;5536;49.602;10.980;2022-09-09T08:57:21;18.80;99.90
10968;DHT22;5536;49.602;10.980;2022-09-09T08:59:52;18.80;99.90
10968;DHT22;5536;49.602;10.980;2022-09-09T09:02:25;19.00;99.90
10968;DHT22;5536;49.602;10.980;2022-09-09T09:05:02;19.30;99.90
10968;DHT22;5536;49.602;10.980;2022-09-09T09:07:40;19.50;99.90
10968;DHT22;5536;49.602;10.980;2022-09-09T09:10:16;19.50;99.90
10968;DHT22;5536;49.602;10.980;2022-09-09T09:12:46;19.70;99.90
10968;DHT22;5536;49.602;10.980;2022-09-09T09:15:18;19.70;99.90
10968;DHT22;5536;49.602;10.980;2022-09-09T09:17:49;20.00;99.90
10968;DHT22;5536;49.602;10.980;2022-09-09T09:20:18;20.10;99.90
10968;DHT22;5536;49.602;10.980;2022-09-09T09:22:49;20.20;99.90
10968;DHT22;5536;49.602;10.980;2022-09-09T09:25:18;20.20;99.90
10968;DHT22;5536;49.602;10.980;2022-09-09T09:27:52;20.10;99.90
10968;DHT22;5536;49.602;10.980;2022-09-09T09:30:22;19.90;99.90
10968;DHT22;5536;49.602;10.980;2022-09-09T09:32:54;20.00;99.90
10968;DHT22;5536;49.602;10.980;2022-09-09T09:35:22;20.00;99.90
10968;DHT22;5536;49.602;10.980;2022-09-09T09:37:50;20.00;99.90
10968;DHT22;5536;49.602;10.980;2022-09-09T09:40:18;20.20;99.90
10968;DHT22;5536;49.602;10.980;2022-09-09T09:42:51;20.30;99.90
10968;DHT22;5536;49.602;10.980;2022-09-09T09:45:27;20.40;99.90
10968;DHT22;5536;49.602;10.980;2022-09-09T09:48:00;20.30;99.90
10968;DHT22;5536;49.602;10.980;2022-09-09T09:50:28;20.60;99.90
10968;DHT22;5536;49.602;10.980;2022-09-09T09:52:56;20.80;99.90
10968;DHT22;5536;49.602;10.980;2022-09-09T09:55:24;21.10;99.90
10968;DHT22;5536;49.602;10.980;2022-09-09T09:57:53;21.20;99.90
10968;DHT22;5536;49.602;10.980;2022-09-09T10:00:21;21.20;99.10
10968;DHT22;5536;49.602;10.980;2022-09-09T10:02:50;20.90;99.90
10968;DHT22;5536;49.602;10.980;2022-09-09T10:05:22;20.90;99.10
10968;DHT22;5536;49.602;10.980;2022-09-09T10:08:01;21.00;99.40
10968;DHT22;5536;49.602;10.980;2022-09-09T10:10:40;21.00;99.50
10968;DHT22;5536;49.602;10.980;2022-09-09T10:13:15;20.90;99.50
10968;DHT22;5536;49.602;10.980;2022-09-09T10:15:53;20.80;99.70
10968;DHT22;5536;49.602;10.980;2022-09-09T10:18:38;20.70;99.90
10968;DHT22;5536;49.602;10.980;2022-09-09T10:21:19;20.90;99.90
10968;DHT22;5536;49.602;10.980;2022-09-09T10:24:02;21.20;99.10
10968;DHT22;5536;49.602;10.980;2022-09-09T10:26:40;21.40;98.00
10968;DHT22;5536;49.602;10.980;2022-09-09T10:29:30;21.80;97.00
10968;DHT22;5536;49.602;10.980;2022-09-09T10:32:10;21.90;95.60
10968;DHT22;5536;49.602;10.980;2022-09-09T10:34:55;22.20;95.20
10968;DHT22;5536;49.602;10.980;2022-09-09T10:37:40;22.40;93.30
10968;DHT22;5536;49.602;10.980;2022-09-09T10:40:26;22.20;92.70
10968;DHT22;5536;49.602;10.980;2022-09-09T10:43:02;21.70;93.70
10968;DHT22;5536;49.602;10.980;2022-09-09T10:45:38;21.60;94.90
10968;DHT22;5536;49.602;10.980;2022-09-09T10:48:17;21.60;94.40
10968;DHT22;5536;49.602;10.980;2022-09-09T10:50:51;21.70;94.10
10968;DHT22;5536;49.602;10.980;2022-09-09T10:53:32;22.00;92.60
10968;DHT22;5536;49.602;10.980;2022-09-09T10:56:06;22.50;91.80
10968;DHT22;5536;49.602;10.980;2022-09-09T10:58:36;22.50;89.80
10968;DHT22;5536;49.602;10.980;2022-09-09T11:01:13;22.60;89.20
10968;DHT22;5536;49.602;10.980;2022-09-09T11:03:43;23.10;90.30
10968;DHT22;5536;49.602;10.980;2022-09-09T11:06:16;23.50;89.20
10968;DHT22;5536;49.602;10.980;2022-09-09T11:08:47;24.00;89.50
10968;DHT22;5536;49.602;10.980;2022-09-09T11:11:19;24.00;85.40
10968;DHT22;5536;49.602;10.980;2022-09-09T11:13:52;24.10;83.50
10968;DHT22;5536;49.602;10.980;2022-09-09T11:16:25;24.10;86.00
10968;DHT22;5536;49.602;10.980;2022-09-09T11:18:58;24.00;84.20
10968;DHT22;5536;49.602;10.980;2022-09-09T11:21:30;24.40;81.20
10968;DHT22;5536;49.602;10.980;2022-09-09T11:24:02;24.60;85.00
10968;DHT22;5536;49.602;10.980;2022-09-09T11:26:33;25.40;76.10
10968;DHT22;5536;49.602;10.980;2022-09-09T11:29:26;25.50;75.10
10968;DHT22;5536;49.602;10.980;2022-09-09T11:32:04;25.20;69.40
10968;DHT22;5536;49.602;10.980;2022-09-09T11:34:43;25.30;69.90
10968;DHT22;5536;49.602;10.980;2022-09-09T11:37:31;24.60;73.90
10968;DHT22;5536;49.602;10.980;2022-09-09T11:40:26;25.10;73.30
10968;DHT22;5536;49.602;10.980;2022-09-09T11:43:03;24.10;63.70
10968;DHT22;5536;49.602;10.980;2022-09-09T11:45:33;23.50;69.00
10968;DHT22;5536;49.602;10.980;2022-09-09T11:48:03;24.30;66.00
10968;DHT22;5536;49.602;10.980;2022-09-09T11:50:34;25.20;60.40
10968;DHT22;5536;49.602;10.980;2022-09-09T11:53:19;26.40;52.30
10968;DHT22;5536;49.602;10.980;2022-09-09T11:56:12;26.70;47.90
10968;DHT22;5536;49.602;10.980;2022-09-09T11:58:54;26.20;48.80
10968;DHT22;5536;49.602;10.980;2022-09-09T12:01:30;26.30;49.20
10968;DHT22;5536;49.602;10.980;2022-09-09T12:04:35;26.80;50.60
10968;DHT22;5536;49.602;10.980;2022-09-09T12:07:24;26.50;46.00
10968;DHT22;5536;49.602;10.980;2022-09-09T12:09:55;25.00;50.40
10968;DHT22;5536;49.602;10.980;2022-09-09T12:12:28;24.20;51.90
10968;DHT22;5536;49.602;10.980;2022-09-09T12:15:03;23.50;53.00
10968;DHT22;5536;49.602;10.980;2022-09-09T12:17:45;23.30;51.50
10968;DHT22;5536;49.602;10.980;2022-09-09T12:20:15;23.30;51.60
10968;DHT22;5536;49.602;10.980;2022-09-09T12:22:50;23.30;53.10
10968;DHT22;5536;49.602;10.980;2022-09-09T12:25:26;23.00;54.10
10968;DHT22;5536;49.602;10.980;2022-09-09T12:28:04;23.20;53.10
10968;DHT22;5536;49.602;10.980;2022-09-09T12:30:36;23.00;52.40
10968;DHT22;5536;49.602;10.980;2022-09-09T12:33:11;23.20;54.80
10968;DHT22;5536;49.602;10.980;2022-09-09T12:35:40;24.00;50.10
10968;DHT22;5536;49.602;10.980;2022-09-09T12:38:13;23.70;51.30
10968;DHT22;5536;49.602;10.980;2022-09-09T12:40:41;23.00;54.90
10968;DHT22;5536;49.602;10.980;2022-09-09T12:43:20;22.00;60.70
10968;DHT22;5536;49.602;10.980;2022-09-09T12:45:49;21.40;67.10
10968;DHT22;5536;49.602;10.980;2022-09-09T12:48:27;21.10;72.60
10968;DHT22;5536;49.602;10.980;2022-09-09T12:50:55;20.70;78.10
10968;DHT22;5536;49.602;10.980;2022-09-09T12:53:25;20.40;82.50
10968;DHT22;5536;49.602;10.980;2022-09-09T12:55:56;20.10;86.60
10968;DHT22;5536;49.602;10.980;2022-09-09T12:58:25;19.80;91.10
10968;DHT22;5536;49.602;10.980;2022-09-09T13:00:55;19.40;99.90
10968;DHT22;5536;49.602;10.980;2022-09-09T13:03:23;18.60;99.90
10968;DHT22;5536;49.602;10.980;2022-09-09T13:05:51;18.10;99.90
10968;DHT22;5536;49.602;10.980;2022-09-09T13:08:19;17.70;99.90
10968;DHT22;5536;49.602;10.980;2022-09-09T13:10:49;17.50;99.90
10968;DHT22;5536;49.602;10.980;2022-09-09T13:13:21;17.30;99.90
10968;DHT22;5536;49.602;10.980;2022-09-09T13:15:52;17.00;99.90
10968;DHT22;5536;49.602;10.980;2022-09-09T13:18:22;16.90;99.90
10968;DHT22;5536;49.602;10.980;2022-09-09T13:20:51;17.10;99.90
10968;DHT22;5536;49.602;10.980;2022-09-09T13:23:19;17.10;99.90
10968;DHT22;5536;49.602;10.980;2022-09-09T13:25:57;17.10;99.90
10968;DHT22;5536;49.602;10.980;2022-09-09T13:28:25;17.50;99.90
10968;DHT22;5536;49.602;10.980;2022-09-09T13:31:01;18.80;99.90
10968;DHT22;5536;49.602;10.980;2022-09-09T13:33:33;20.30;99.90
10968;DHT22;5536;49.602;10.980;2022-09-09T13:36:03;21.20;1.00
10968;DHT22;5536;49.602;10.980;2022-09-09T13:38:33;21.30;99.90
10968;DHT22;5536;49.602;10.980;2022-09-09T13:41:04;21.30;99.90
10968;DHT22;5536;49.602;10.980;2022-09-09T13:43:36;21.90;99.90
10968;DHT22;5536;49.602;10.980;2022-09-09T13:46:21;22.30;99.90
10968;DHT22;5536;49.602;10.980;2022-09-09T13:48:54;22.10;99.90
10968;DHT22;5536;49.602;10.980;2022-09-09T13:51:33;21.80;99.90
10968;DHT22;5536;49.602;10.980;2022-09-09T13:54:00;21.40;99.90
10968;DHT22;5536;49.602;10.980;2022-09-09T13:56:27;21.10;99.90
10968;DHT22;5536;49.602;10.980;2022-09-09T13:58:54;20.90;99.90
10968;DHT22;5536;49.602;10.980;2022-09-09T14:01:25;20.50;99.90
10968;DHT22;5536;49.602;10.980;2022-09-09T14:03:53;20.40;99.90
10968;DHT22;5536;49.602;10.980;2022-09-09T14:06:20;20.40;99.90
10968;DHT22;5536;49.602;10.980;2022-09-09T14:08:48;20.20;99.90
10968;DHT22;5536;49.602;10.980;2022-09-09T14:11:16;20.30;99.90
10968;DHT22;5536;49.602;10.980;2022-09-09T14:13:44;20.20;99.90
10968;DHT22;5536;49.602;10.980;2022-09-09T14:16:12;20.50;99.90
10968;DHT22;5536;49.602;10.980;2022-09-09T14:18:40;20.90;99.90
10968;DHT22;5536;49.602;10.980;2022-09-09T14:21:07;21.00;99.90
10968;DHT22;5536;49.602;10.980;2022-09-09T14:23:35;20.90;99.90
10968;DHT22;5536;49.602;10.980;2022-09-09T14:26:03;20.90;99.90
10968;DHT22;5536;49.602;10.980;2022-09-09T14:28:31;20.90;99.90
10968;DHT22;5536;49.602;10.980;2022-09-09T14:31:00;20.70;99.90
10968;DHT22;5536;49.602;10.980;2022-09-09T14:33:27;20.80;99.90
10968;DHT22;5536;49.602;10.980;2022-09-09T14:35:58;20.90;99.90
10968;DHT22;5536;49.602;10.980;2022-09-09T14:38:25;21.00;99.90
10968;DHT22;5536;49.602;10.980;2022-09-09T14:40:52;21.00;99.90
10968;DHT22;5536;49.602;10.980;2022-09-09T14:43:19;20.80;99.90
10968;DHT22;5536;49.602;10.980;2022-09-09T14:45:46;20.60;99.90
10968;DHT22;5536;49.602;10.980;2022-09-09T14:48:16;20.40;99.90
10968;DHT22;5536;49.602;10.980;2022-09-09T14:50:43;20.50;99.90
10968;DHT22;5536;49.602;10.980;2022-09-09T14:53:12;20.50;1.00
10968;DHT22;5536;49.602;10.980;2022-09-09T14:55:39;20.30;1.00
10968;DHT22;5536;49.602;10.980;2022-09-09T14:58:06;20.10;99.90
10968;DHT22;5536;49.602;10.980;2022-09-09T15:00:33;20.00;99.90
10968;DHT22;5536;49.602;10.980;2022-09-09T15:03:01;19.80;99.90
10968;DHT22;5536;49.602;10.980;2022-09-09T15:05:28;19.80;99.90
10968;DHT22;5536;49.602;10.980;2022-09-09T15:07:57;19.80;99.90
10968;DHT22;5536;49.602;10.980;2022-09-09T15:10:26;19.70;99.90
10968;DHT22;5536;49.602;10.980;2022-09-09T15:12:53;19.80;99.90
10968;DHT22;5536;49.602;10.980;2022-09-09T15:15:20;19.80;99.90
10968;DHT22;5536;49.602;10.980;2022-09-09T15:17:47;19.80;99.90
10968;DHT22;5536;49.602;10.980;2022-09-09T15:20:14;19.80;99.90
10968;DHT22;5536;49.602;10.980;2022-09-09T15:22:42;19.90;99.90
10968;DHT22;5536;49.602;10.980;2022-09-09T15:25:09;19.90;99.90
10968;DHT22;5536;49.602;10.980;2022-09-09T15:27:39;19.80;99.90
10968;DHT22;5536;49.602;10.980;2022-09-09T15:30:07;19.70;99.90
10968;DHT22;5536;49.602;10.980;2022-09-09T15:32:35;19.60;99.90
10968;DHT22;5536;49.602;10.980;2022-09-09T15:35:02;19.60;99.90
10968;DHT22;5536;49.602;10.980;2022-09-09T15:37:29;19.70;99.90
10968;DHT22;5536;49.602;10.980;2022-09-09T15:39:56;19.90;99.90
10968;DHT22;5536;49.602;10.980;2022-09-09T15:42:25;19.90;99.90
10968;DHT22;5536;49.602;10.980;2022-09-09T15:44:54;19.80;99.90
10968;DHT22;5536;49.602;10.980;2022-09-09T15:47:21;19.80;99.90
10968;DHT22;5536;49.602;10.980;2022-09-09T15:49:48;19.80;99.90
10968;DHT22;5536;49.602;10.980;2022-09-09T15:52:16;19.90;99.90
10968;DHT22;5536;49.602;10.980;2022-09-09T15:54:43;19.90;99.90